sensor_id;sensor_type;location;lat;lon;timestamp;P1;durP1;ratioP1;P2;durP2;ratioP2
42108;SDS011;27765;51.228;7.626;2022-08-11T00:02:22;2.28;;;1.60;;
42108;SDS011;27765;51.228;7.626;2022-08-11T00:05:20;1.80;;;1.33;;
42108;SDS011;27765;51.228;7.626;2022-08-11T00:08:06;2.80;;;1.40;;
42108;SDS011;27765;51.228;7.626;2022-08-11T00:10:55;1.48;;;1.38;;
42108;SDS011;27765;51.228;7.626;2022-08-11T00:13:45;1.83;;;1.38;;
42108;SDS011;27765;51.228;7.626;2022-08-11T00:16:32;1.92;;;1.50;;
42108;SDS011;27765;51.228;7.626;2022-08-11T00:19:20;2.88;;;1.65;;
42108;SDS011;27765;51.228;7.626;2022-08-11T00:22:11;1.70;;;1.50;;
42108;SDS011;27765;51.228;7.626;2022-08-11T00:25:15;2.38;;;1.60;;
42108;SDS011;27765;51.228;7.626;2022-08-11T00:28:03;2.35;;;1.58;;
42108;SDS011;27765;51.228;7.626;2022-08-11T00:30:50;1.95;;;1.65;;
42108;SDS011;27765;51.228;7.626;2022-08-11T00:33:41;1.48;;;1.38;;
42108;SDS011;27765;51.228;7.626;2022-08-11T00:36:36;1.60;;;1.42;;
42108;SDS011;27765;51.228;7.626;2022-08-11T00:39:27;1.80;;;1.65;;
42108;SDS011;27765;51.228;7.626;2022-08-11T00:42:34;1.75;;;1.42;;
42108;SDS011;27765;51.228;7.626;2022-08-11T01:04:44;1.50;;;1.30;;
42108;SDS011;27765;51.228;7.626;2022-08-11T01:07:44;3.72;;;1.90;;
42108;SDS011;27765;51.228;7.626;2022-08-11T01:27:12;2.45;;;1.90;;
42108;SDS011;27765;51.228;7.626;2022-08-11T01:30:31;2.17;;;1.60;;
42108;SDS011;27765;51.228;7.626;2022-08-11T01:42:51;2.10;;;1.90;;
42108;SDS011;27765;51.228;7.626;2022-08-11T01:46:21;3.17;;;1.90;;
42108;SDS011;27765;51.228;7.626;2022-08-11T01:52:18;3.10;;;1.70;;
42108;SDS011;27765;51.228;7.626;2022-08-11T02:05:22;1.83;;;1.67;;
42108;SDS011;27765;51.228;7.626;2022-08-11T02:08:02;2.42;;;1.67;;
42108;SDS011;27765;51.228;7.626;2022-08-11T02:11:21;2.83;;;1.98;;
42108;SDS011;27765;51.228;7.626;2022-08-11T02:14:23;2.13;;;1.90;;
42108;SDS011;27765;51.228;7.626;2022-08-11T02:17:20;2.17;;;1.80;;
42108;SDS011;27765;51.228;7.626;2022-08-11T02:20:19;3.35;;;1.90;;
42108;SDS011;27765;51.228;7.626;2022-08-11T02:23:36;2.83;;;2.08;;
42108;SDS011;27765;51.228;7.626;2022-08-11T02:26:48;1.70;;;1.40;;
42108;SDS011;27765;51.228;7.626;2022-08-11T02:29:46;2.35;;;1.85;;
42108;SDS011;27765;51.228;7.626;2022-08-11T02:32:38;3.20;;;2.13;;
42108;SDS011;27765;51.228;7.626;2022-08-11T02:38:58;3.40;;;1.85;;
42108;SDS011;27765;51.228;7.626;2022-08-11T02:42:09;1.77;;;1.67;;
42108;SDS011;27765;51.228;7.626;2022-08-11T02:45:17;2.10;;;1.77;;
42108;SDS011;27765;51.228;7.626;2022-08-11T02:51:57;2.22;;;1.85;;
42108;SDS011;27765;51.228;7.626;2022-08-11T02:57:36;2.30;;;1.90;;
42108;SDS011;27765;51.228;7.626;2022-08-11T03:00:28;1.77;;;1.67;;
42108;SDS011;27765;51.228;7.626;2022-08-11T03:03:20;2.67;;;1.77;;
42108;SDS011;27765;51.228;7.626;2022-08-11T03:06:26;2.15;;;1.90;;
42108;SDS011;27765;51.228;7.626;2022-08-11T03:09:18;2.37;;;1.83;;
42108;SDS011;27765;51.228;7.626;2022-08-11T03:12:27;2.72;;;2.25;;
42108;SDS011;27765;51.228;7.626;2022-08-11T03:29:14;3.33;;;2.60;;
42108;SDS011;27765;51.228;7.626;2022-08-11T03:32:00;3.35;;;2.42;;
42108;SDS011;27765;51.228;7.626;2022-08-11T03:34:51;4.45;;;2.40;;
42108;SDS011;27765;51.228;7.626;2022-08-11T03:37:47;2.58;;;2.38;;
42108;SDS011;27765;51.228;7.626;2022-08-11T03:44:08;2.47;;;2.25;;
42108;SDS011;27765;51.228;7.626;2022-08-11T03:47:11;2.30;;;2.10;;
42108;SDS011;27765;51.228;7.626;2022-08-11T04:08:54;4.47;;;2.63;;
42108;SDS011;27765;51.228;7.626;2022-08-11T04:16:04;2.97;;;2.47;;
42108;SDS011;27765;51.228;7.626;2022-08-11T04:31:24;2.80;;;2.13;;
42108;SDS011;27765;51.228;7.626;2022-08-11T04:38:13;3.33;;;2.13;;
42108;SDS011;27765;51.228;7.626;2022-08-11T04:50:53;2.28;;;2.08;;
42108;SDS011;27765;51.228;7.626;2022-08-11T05:04:45;3.50;;;2.45;;
42108;SDS011;27765;51.228;7.626;2022-08-11T05:11:27;3.67;;;2.33;;
42108;SDS011;27765;51.228;7.626;2022-08-11T05:14:35;3.17;;;2.50;;
42108;SDS011;27765;51.228;7.626;2022-08-11T05:23:55;13.77;;;2.78;;
42108;SDS011;27765;51.228;7.626;2022-08-11T05:26:59;5.20;;;2.65;;
42108;SDS011;27765;51.228;7.626;2022-08-11T05:32:53;11.68;;;2.88;;
42108;SDS011;27765;51.228;7.626;2022-08-11T05:36:04;4.40;;;2.63;;
42108;SDS011;27765;51.228;7.626;2022-08-11T05:38:36;3.85;;;2.38;;
42108;SDS011;27765;51.228;7.626;2022-08-11T05:41:22;4.57;;;2.45;;
42108;SDS011;27765;51.228;7.626;2022-08-11T05:44:09;3.17;;;2.30;;
42108;SDS011;27765;51.228;7.626;2022-08-11T05:47:00;8.73;;;2.00;;
42108;SDS011;27765;51.228;7.626;2022-08-11T05:49:47;4.20;;;1.95;;
42108;SDS011;27765;51.228;7.626;2022-08-11T05:52:33;7.07;;;2.42;;
42108;SDS011;27765;51.228;7.626;2022-08-11T05:55:19;5.35;;;2.53;;
42108;SDS011;27765;51.228;7.626;2022-08-11T05:58:06;4.55;;;2.22;;
42108;SDS011;27765;51.228;7.626;2022-08-11T06:00:42;5.68;;;2.70;;
42108;SDS011;27765;51.228;7.626;2022-08-11T06:03:11;4.43;;;2.58;;
42108;SDS011;27765;51.228;7.626;2022-08-11T06:05:49;6.72;;;2.50;;
42108;SDS011;27765;51.228;7.626;2022-08-11T06:08:16;5.25;;;2.55;;
42108;SDS011;27765;51.228;7.626;2022-08-11T06:10:51;4.05;;;2.58;;
42108;SDS011;27765;51.228;7.626;2022-08-11T06:13:23;3.50;;;2.15;;
42108;SDS011;27765;51.228;7.626;2022-08-11T06:15:50;5.35;;;2.30;;
42108;SDS011;27765;51.228;7.626;2022-08-11T06:18:17;4.05;;;2.40;;
42108;SDS011;27765;51.228;7.626;2022-08-11T06:23:20;5.55;;;2.28;;
42108;SDS011;27765;51.228;7.626;2022-08-11T06:25:52;5.45;;;2.15;;
42108;SDS011;27765;51.228;7.626;2022-08-11T06:28:18;4.15;;;2.22;;
42108;SDS011;27765;51.228;7.626;2022-08-11T06:30:55;4.20;;;2.33;;
42108;SDS011;27765;51.228;7.626;2022-08-11T06:39:08;2.92;;;2.10;;
42108;SDS011;27765;51.228;7.626;2022-08-11T06:41:55;5.38;;;2.35;;
42108;SDS011;27765;51.228;7.626;2022-08-11T06:44:31;3.70;;;2.25;;
42108;SDS011;27765;51.228;7.626;2022-08-11T06:47:05;5.25;;;2.00;;
42108;SDS011;27765;51.228;7.626;2022-08-11T06:49:44;7.18;;;2.20;;
42108;SDS011;27765;51.228;7.626;2022-08-11T06:52:31;5.88;;;2.55;;
42108;SDS011;27765;51.228;7.626;2022-08-11T06:55:09;2.10;;;1.90;;
42108;SDS011;27765;51.228;7.626;2022-08-11T06:57:38;4.13;;;1.98;;
42108;SDS011;27765;51.228;7.626;2022-08-11T07:00:27;3.03;;;1.95;;
42108;SDS011;27765;51.228;7.626;2022-08-11T07:11:19;3.30;;;1.95;;
42108;SDS011;27765;51.228;7.626;2022-08-11T07:14:30;3.08;;;1.75;;
42108;SDS011;27765;51.228;7.626;2022-08-11T07:17:18;3.20;;;1.77;;
42108;SDS011;27765;51.228;7.626;2022-08-11T07:19:49;2.53;;;1.88;;
42108;SDS011;27765;51.228;7.626;2022-08-11T07:22:36;6.28;;;1.88;;
42108;SDS011;27765;51.228;7.626;2022-08-11T07:25:22;5.30;;;1.88;;
42108;SDS011;27765;51.228;7.626;2022-08-11T07:28:17;2.25;;;1.77;;
42108;SDS011;27765;51.228;7.626;2022-08-11T07:31:12;6.65;;;2.10;;
42108;SDS011;27765;51.228;7.626;2022-08-11T07:33:46;2.47;;;1.60;;
42108;SDS011;27765;51.228;7.626;2022-08-11T07:36:15;3.22;;;1.63;;
42108;SDS011;27765;51.228;7.626;2022-08-11T07:38:43;3.50;;;1.70;;
42108;SDS011;27765;51.228;7.626;2022-08-11T07:41:16;3.70;;;3.00;;
42108;SDS011;27765;51.228;7.626;2022-08-11T07:43:44;4.15;;;2.00;;
42108;SDS011;27765;51.228;7.626;2022-08-11T07:46:13;1.90;;;1.63;;
42108;SDS011;27765;51.228;7.626;2022-08-11T07:48:59;3.30;;;1.50;;
42108;SDS011;27765;51.228;7.626;2022-08-11T07:51:46;2.45;;;1.50;;
42108;SDS011;27765;51.228;7.626;2022-08-11T07:54:32;3.22;;;1.60;;
42108;SDS011;27765;51.228;7.626;2022-08-11T07:56:59;2.50;;;1.67;;
42108;SDS011;27765;51.228;7.626;2022-08-11T07:59:45;2.78;;;1.73;;
42108;SDS011;27765;51.228;7.626;2022-08-11T08:02:30;1.73;;;1.38;;
42108;SDS011;27765;51.228;7.626;2022-08-11T08:05:15;1.73;;;1.30;;
42108;SDS011;27765;51.228;7.626;2022-08-11T08:08:01;1.42;;;1.33;;
42108;SDS011;27765;51.228;7.626;2022-08-11T08:10:46;1.55;;;1.30;;
42108;SDS011;27765;51.228;7.626;2022-08-11T08:13:31;1.38;;;1.27;;
42108;SDS011;27765;51.228;7.626;2022-08-11T08:16:17;1.90;;;1.40;;
42108;SDS011;27765;51.228;7.626;2022-08-11T08:19:04;1.52;;;1.30;;
42108;SDS011;27765;51.228;7.626;2022-08-11T08:21:30;1.38;;;1.25;;
42108;SDS011;27765;51.228;7.626;2022-08-11T08:23:56;2.20;;;1.40;;
42108;SDS011;27765;51.228;7.626;2022-08-11T08:26:22;2.42;;;1.50;;
42108;SDS011;27765;51.228;7.626;2022-08-11T08:29:07;2.03;;;1.45;;
42108;SDS011;27765;51.228;7.626;2022-08-11T08:31:52;1.92;;;1.42;;
42108;SDS011;27765;51.228;7.626;2022-08-11T08:34:20;1.60;;;1.20;;
42108;SDS011;27765;51.228;7.626;2022-08-11T08:36:49;2.10;;;1.17;;
42108;SDS011;27765;51.228;7.626;2022-08-11T08:39:20;2.00;;;1.05;;
42108;SDS011;27765;51.228;7.626;2022-08-11T08:41:48;3.63;;;1.35;;
42108;SDS011;27765;51.228;7.626;2022-08-11T08:44:17;1.85;;;1.05;;
42108;SDS011;27765;51.228;7.626;2022-08-11T08:46:47;2.05;;;1.20;;
42108;SDS011;27765;51.228;7.626;2022-08-11T08:49:18;1.45;;;1.08;;
42108;SDS011;27765;51.228;7.626;2022-08-11T08:51:51;2.38;;;1.00;;
42108;SDS011;27765;51.228;7.626;2022-08-11T08:54:37;1.13;;;0.90;;
42108;SDS011;27765;51.228;7.626;2022-08-11T08:57:07;5.60;;;1.02;;
42108;SDS011;27765;51.228;7.626;2022-08-11T08:59:35;3.80;;;1.05;;
42108;SDS011;27765;51.228;7.626;2022-08-11T09:02:04;6.55;;;1.13;;
42108;SDS011;27765;51.228;7.626;2022-08-11T09:04:31;2.90;;;1.27;;
42108;SDS011;27765;51.228;7.626;2022-08-11T09:07:02;3.75;;;1.08;;
42108;SDS011;27765;51.228;7.626;2022-08-11T09:09:33;1.00;;;0.88;;
42108;SDS011;27765;51.228;7.626;2022-08-11T09:12:01;2.58;;;1.20;;
42108;SDS011;27765;51.228;7.626;2022-08-11T09:14:36;9.25;;;1.08;;
42108;SDS011;27765;51.228;7.626;2022-08-11T09:17:22;2.97;;;1.20;;
42108;SDS011;27765;51.228;7.626;2022-08-11T09:19:51;1.80;;;1.20;;
42108;SDS011;27765;51.228;7.626;2022-08-11T09:22:27;1.38;;;0.88;;
42108;SDS011;27765;51.228;7.626;2022-08-11T09:28:00;2.75;;;0.93;;
42108;SDS011;27765;51.228;7.626;2022-08-11T09:30:29;3.07;;;0.83;;
42108;SDS011;27765;51.228;7.626;2022-08-11T09:32:57;3.92;;;1.00;;
42108;SDS011;27765;51.228;7.626;2022-08-11T09:35:26;1.00;;;0.90;;
42108;SDS011;27765;51.228;7.626;2022-08-11T09:37:56;2.92;;;1.00;;
42108;SDS011;27765;51.228;7.626;2022-08-11T09:40:42;2.70;;;0.82;;
42108;SDS011;27765;51.228;7.626;2022-08-11T09:43:12;1.63;;;0.90;;
42108;SDS011;27765;51.228;7.626;2022-08-11T09:45:58;6.18;;;0.90;;
42108;SDS011;27765;51.228;7.626;2022-08-11T09:48:26;3.72;;;1.10;;
42108;SDS011;27765;51.228;7.626;2022-08-11T09:50:56;2.10;;;0.98;;
42108;SDS011;27765;51.228;7.626;2022-08-11T09:53:25;1.85;;;0.93;;
42108;SDS011;27765;51.228;7.626;2022-08-11T09:55:56;3.75;;;1.00;;
42108;SDS011;27765;51.228;7.626;2022-08-11T09:58:23;4.07;;;1.65;;
42108;SDS011;27765;51.228;7.626;2022-08-11T10:01:07;3.65;;;1.00;;
42108;SDS011;27765;51.228;7.626;2022-08-11T10:04:10;2.70;;;0.93;;
42108;SDS011;27765;51.228;7.626;2022-08-11T10:06:43;4.80;;;1.25;;
42108;SDS011;27765;51.228;7.626;2022-08-11T10:09:39;3.75;;;1.02;;
42108;SDS011;27765;51.228;7.626;2022-08-11T10:12:08;2.45;;;1.10;;
42108;SDS011;27765;51.228;7.626;2022-08-11T10:14:38;1.48;;;1.00;;
42108;SDS011;27765;51.228;7.626;2022-08-11T10:17:26;4.88;;;1.00;;
42108;SDS011;27765;51.228;7.626;2022-08-11T10:20:00;2.15;;;0.98;;
42108;SDS011;27765;51.228;7.626;2022-08-11T10:22:28;2.63;;;1.10;;
42108;SDS011;27765;51.228;7.626;2022-08-11T10:25:14;1.85;;;1.10;;
42108;SDS011;27765;51.228;7.626;2022-08-11T10:27:59;2.17;;;1.13;;
42108;SDS011;27765;51.228;7.626;2022-08-11T10:30:28;2.07;;;1.00;;
42108;SDS011;27765;51.228;7.626;2022-08-11T10:36:03;2.28;;;1.30;;
42108;SDS011;27765;51.228;7.626;2022-08-11T10:38:30;3.30;;;0.90;;
42108;SDS011;27765;51.228;7.626;2022-08-11T10:40:57;1.23;;;0.90;;
42108;SDS011;27765;51.228;7.626;2022-08-11T10:43:42;1.77;;;0.90;;
42108;SDS011;27765;51.228;7.626;2022-08-11T10:46:11;3.20;;;1.33;;
42108;SDS011;27765;51.228;7.626;2022-08-11T10:48:56;4.05;;;1.10;;
42108;SDS011;27765;51.228;7.626;2022-08-11T10:51:23;2.15;;;1.10;;
42108;SDS011;27765;51.228;7.626;2022-08-11T10:54:09;2.47;;;1.10;;
42108;SDS011;27765;51.228;7.626;2022-08-11T10:56:54;4.57;;;0.80;;
42108;SDS011;27765;51.228;7.626;2022-08-11T10:59:39;3.95;;;1.60;;
42108;SDS011;27765;51.228;7.626;2022-08-11T11:02:11;4.28;;;1.02;;
42108;SDS011;27765;51.228;7.626;2022-08-11T11:07:22;3.55;;;1.30;;
42108;SDS011;27765;51.228;7.626;2022-08-11T11:09:58;3.00;;;1.15;;
42108;SDS011;27765;51.228;7.626;2022-08-11T11:15:17;1.67;;;1.08;;
42108;SDS011;27765;51.228;7.626;2022-08-11T11:18:04;2.25;;;1.20;;
42108;SDS011;27765;51.228;7.626;2022-08-11T11:39:07;5.55;;;1.30;;
42108;SDS011;27765;51.228;7.626;2022-08-11T11:41:34;2.10;;;0.90;;
42108;SDS011;27765;51.228;7.626;2022-08-11T11:44:01;1.15;;;1.05;;
42108;SDS011;27765;51.228;7.626;2022-08-11T11:46:28;4.18;;;1.33;;
42108;SDS011;27765;51.228;7.626;2022-08-11T11:48:56;2.40;;;1.27;;
42108;SDS011;27765;51.228;7.626;2022-08-11T11:51:24;5.53;;;1.40;;
42108;SDS011;27765;51.228;7.626;2022-08-11T11:53:52;3.10;;;1.10;;
42108;SDS011;27765;51.228;7.626;2022-08-11T11:56:21;2.10;;;1.20;;
42108;SDS011;27765;51.228;7.626;2022-08-11T11:58:49;6.18;;;1.20;;
42108;SDS011;27765;51.228;7.626;2022-08-11T12:01:35;1.63;;;1.00;;
42108;SDS011;27765;51.228;7.626;2022-08-11T12:04:02;2.65;;;1.48;;
42108;SDS011;27765;51.228;7.626;2022-08-11T12:08:59;2.72;;;1.27;;
42108;SDS011;27765;51.228;7.626;2022-08-11T12:11:26;2.50;;;1.40;;
42108;SDS011;27765;51.228;7.626;2022-08-11T12:14:14;5.47;;;1.40;;
42108;SDS011;27765;51.228;7.626;2022-08-11T12:17:03;1.52;;;1.40;;
42108;SDS011;27765;51.228;7.626;2022-08-11T12:19:29;1.52;;;1.20;;
42108;SDS011;27765;51.228;7.626;2022-08-11T12:21:56;5.13;;;1.65;;
42108;SDS011;27765;51.228;7.626;2022-08-11T12:24:42;1.95;;;1.48;;
42108;SDS011;27765;51.228;7.626;2022-08-11T12:27:29;3.63;;;1.17;;
42108;SDS011;27765;51.228;7.626;2022-08-11T12:29:57;3.65;;;1.40;;
42108;SDS011;27765;51.228;7.626;2022-08-11T12:32:30;2.35;;;1.27;;
42108;SDS011;27765;51.228;7.626;2022-08-11T12:34:58;5.65;;;1.65;;
42108;SDS011;27765;51.228;7.626;2022-08-11T12:37:29;1.65;;;1.30;;
42108;SDS011;27765;51.228;7.626;2022-08-11T12:40:01;2.35;;;1.30;;
42108;SDS011;27765;51.228;7.626;2022-08-11T12:42:50;1.88;;;1.17;;
42108;SDS011;27765;51.228;7.626;2022-08-11T12:45:36;2.67;;;1.20;;
42108;SDS011;27765;51.228;7.626;2022-08-11T12:50:51;4.93;;;1.20;;
42108;SDS011;27765;51.228;7.626;2022-08-11T12:53:58;2.72;;;1.35;;
42108;SDS011;27765;51.228;7.626;2022-08-11T12:56:43;4.28;;;1.30;;
42108;SDS011;27765;51.228;7.626;2022-08-11T12:59:30;2.88;;;1.70;;
42108;SDS011;27765;51.228;7.626;2022-08-11T13:02:16;1.33;;;1.23;;
42108;SDS011;27765;51.228;7.626;2022-08-11T13:05:04;5.97;;;1.55;;
42108;SDS011;27765;51.228;7.626;2022-08-11T13:07:32;2.50;;;1.30;;
42108;SDS011;27765;51.228;7.626;2022-08-11T13:10:00;4.32;;;1.80;;
42108;SDS011;27765;51.228;7.626;2022-08-11T13:12:29;1.95;;;1.13;;
42108;SDS011;27765;51.228;7.626;2022-08-11T13:15:19;1.40;;;1.10;;
42108;SDS011;27765;51.228;7.626;2022-08-11T13:17:48;1.25;;;1.15;;
42108;SDS011;27765;51.228;7.626;2022-08-11T13:20:19;3.13;;;1.40;;
42108;SDS011;27765;51.228;7.626;2022-08-11T13:22:48;2.20;;;1.25;;
42108;SDS011;27765;51.228;7.626;2022-08-11T13:25:17;3.35;;;1.20;;
42108;SDS011;27765;51.228;7.626;2022-08-11T13:27:46;3.78;;;1.10;;
42108;SDS011;27765;51.228;7.626;2022-08-11T13:30:14;3.47;;;1.52;;
42108;SDS011;27765;51.228;7.626;2022-08-11T13:32:59;7.35;;;1.70;;
42108;SDS011;27765;51.228;7.626;2022-08-11T13:35:30;3.42;;;1.60;;
42108;SDS011;27765;51.228;7.626;2022-08-11T13:37:57;6.95;;;1.40;;
42108;SDS011;27765;51.228;7.626;2022-08-11T13:40:26;3.70;;;1.67;;
42108;SDS011;27765;51.228;7.626;2022-08-11T13:42:54;2.53;;;1.50;;
42108;SDS011;27765;51.228;7.626;2022-08-11T13:45:23;1.90;;;1.58;;
42108;SDS011;27765;51.228;7.626;2022-08-11T13:47:51;2.30;;;1.25;;
42108;SDS011;27765;51.228;7.626;2022-08-11T13:50:20;3.53;;;1.20;;
42108;SDS011;27765;51.228;7.626;2022-08-11T13:53:07;5.85;;;1.50;;
42108;SDS011;27765;51.228;7.626;2022-08-11T13:55:34;4.10;;;1.30;;
42108;SDS011;27765;51.228;7.626;2022-08-11T13:58:00;2.03;;;1.20;;
42108;SDS011;27765;51.228;7.626;2022-08-11T14:00:27;1.75;;;1.23;;
42108;SDS011;27765;51.228;7.626;2022-08-11T14:02:56;2.22;;;1.50;;
42108;SDS011;27765;51.228;7.626;2022-08-11T14:05:27;1.67;;;1.20;;
42108;SDS011;27765;51.228;7.626;2022-08-11T14:08:02;1.50;;;1.30;;
42108;SDS011;27765;51.228;7.626;2022-08-11T14:10:32;2.72;;;1.20;;
42108;SDS011;27765;51.228;7.626;2022-08-11T14:13:06;2.28;;;1.40;;
42108;SDS011;27765;51.228;7.626;2022-08-11T14:15:53;2.75;;;1.50;;
42108;SDS011;27765;51.228;7.626;2022-08-11T14:18:27;3.50;;;1.30;;
42108;SDS011;27765;51.228;7.626;2022-08-11T14:21:03;4.50;;;1.23;;
42108;SDS011;27765;51.228;7.626;2022-08-11T14:23:50;3.67;;;1.67;;
42108;SDS011;27765;51.228;7.626;2022-08-11T14:26:20;3.20;;;1.20;;
42108;SDS011;27765;51.228;7.626;2022-08-11T14:28:55;1.52;;;1.38;;
42108;SDS011;27765;51.228;7.626;2022-08-11T14:31:35;1.92;;;1.50;;
42108;SDS011;27765;51.228;7.626;2022-08-11T14:34:06;1.83;;;1.20;;
42108;SDS011;27765;51.228;7.626;2022-08-11T14:36:35;1.40;;;1.30;;
42108;SDS011;27765;51.228;7.626;2022-08-11T14:39:08;2.42;;;1.30;;
42108;SDS011;27765;51.228;7.626;2022-08-11T14:41:41;3.47;;;1.45;;
42108;SDS011;27765;51.228;7.626;2022-08-11T14:44:30;1.13;;;1.00;;
42108;SDS011;27765;51.228;7.626;2022-08-11T14:47:17;3.53;;;1.20;;
42108;SDS011;27765;51.228;7.626;2022-08-11T14:49:44;1.63;;;1.20;;
42108;SDS011;27765;51.228;7.626;2022-08-11T14:52:14;1.70;;;1.30;;
42108;SDS011;27765;51.228;7.626;2022-08-11T14:54:48;2.70;;;1.27;;
42108;SDS011;27765;51.228;7.626;2022-08-11T14:57:36;3.08;;;1.40;;
42108;SDS011;27765;51.228;7.626;2022-08-11T15:00:03;5.88;;;1.45;;
42108;SDS011;27765;51.228;7.626;2022-08-11T15:02:32;4.25;;;1.30;;
42108;SDS011;27765;51.228;7.626;2022-08-11T15:05:19;3.53;;;1.65;;
42108;SDS011;27765;51.228;7.626;2022-08-11T15:07:46;3.67;;;1.80;;
42108;SDS011;27765;51.228;7.626;2022-08-11T15:10:12;4.32;;;1.58;;
42108;SDS011;27765;51.228;7.626;2022-08-11T15:12:41;1.90;;;1.70;;
42108;SDS011;27765;51.228;7.626;2022-08-11T15:15:10;2.70;;;1.50;;
42108;SDS011;27765;51.228;7.626;2022-08-11T15:17:57;3.70;;;1.50;;
42108;SDS011;27765;51.228;7.626;2022-08-11T15:20:26;3.88;;;1.52;;
42108;SDS011;27765;51.228;7.626;2022-08-11T15:23:12;1.85;;;1.60;;
42108;SDS011;27765;51.228;7.626;2022-08-11T15:25:59;2.97;;;1.60;;
42108;SDS011;27765;51.228;7.626;2022-08-11T15:28:30;4.45;;;1.52;;
42108;SDS011;27765;51.228;7.626;2022-08-11T15:31:21;2.92;;;1.95;;
42108;SDS011;27765;51.228;7.626;2022-08-11T15:34:10;4.25;;;1.50;;
42108;SDS011;27765;51.228;7.626;2022-08-11T15:36:57;3.92;;;1.55;;
42108;SDS011;27765;51.228;7.626;2022-08-11T15:42:53;2.25;;;1.50;;
42108;SDS011;27765;51.228;7.626;2022-08-11T15:45:44;2.50;;;1.52;;
42108;SDS011;27765;51.228;7.626;2022-08-11T15:48:20;2.33;;;1.95;;
42108;SDS011;27765;51.228;7.626;2022-08-11T15:50:55;2.63;;;1.63;;
42108;SDS011;27765;51.228;7.626;2022-08-11T15:53:29;2.17;;;1.50;;
42108;SDS011;27765;51.228;7.626;2022-08-11T15:56:04;2.47;;;1.40;;
42108;SDS011;27765;51.228;7.626;2022-08-11T15:58:32;4.95;;;1.60;;
42108;SDS011;27765;51.228;7.626;2022-08-11T16:01:20;5.30;;;1.80;;
42108;SDS011;27765;51.228;7.626;2022-08-11T16:04:08;5.88;;;1.85;;
42108;SDS011;27765;51.228;7.626;2022-08-11T16:12:10;3.45;;;1.70;;
42108;SDS011;27765;51.228;7.626;2022-08-11T16:14:41;2.67;;;1.67;;
42108;SDS011;27765;51.228;7.626;2022-08-11T16:17:30;3.30;;;1.70;;
42108;SDS011;27765;51.228;7.626;2022-08-11T16:19:59;2.97;;;1.40;;
42108;SDS011;27765;51.228;7.626;2022-08-11T16:22:31;3.85;;;1.60;;
42108;SDS011;27765;51.228;7.626;2022-08-11T16:25:09;4.22;;;1.60;;
42108;SDS011;27765;51.228;7.626;2022-08-11T16:27:47;3.10;;;1.25;;
42108;SDS011;27765;51.228;7.626;2022-08-11T16:30:15;4.80;;;1.67;;
42108;SDS011;27765;51.228;7.626;2022-08-11T16:32:42;1.60;;;1.50;;
42108;SDS011;27765;51.228;7.626;2022-08-11T16:35:12;3.22;;;1.40;;
42108;SDS011;27765;51.228;7.626;2022-08-11T16:38:00;2.40;;;1.30;;
42108;SDS011;27765;51.228;7.626;2022-08-11T16:40:48;2.38;;;1.65;;
42108;SDS011;27765;51.228;7.626;2022-08-11T16:43:18;3.85;;;1.63;;
42108;SDS011;27765;51.228;7.626;2022-08-11T16:46:06;2.75;;;1.80;;
42108;SDS011;27765;51.228;7.626;2022-08-11T16:48:52;1.90;;;1.80;;
42108;SDS011;27765;51.228;7.626;2022-08-11T16:51:19;3.50;;;1.60;;
42108;SDS011;27765;51.228;7.626;2022-08-11T16:53:48;2.17;;;1.55;;
42108;SDS011;27765;51.228;7.626;2022-08-11T16:56:15;4.00;;;2.10;;
42108;SDS011;27765;51.228;7.626;2022-08-11T16:58:52;3.28;;;1.75;;
42108;SDS011;27765;51.228;7.626;2022-08-11T17:01:58;3.75;;;2.00;;
42108;SDS011;27765;51.228;7.626;2022-08-11T17:04:45;2.95;;;1.95;;
42108;SDS011;27765;51.228;7.626;2022-08-11T17:07:36;2.10;;;1.70;;
42108;SDS011;27765;51.228;7.626;2022-08-11T17:10:28;2.30;;;1.90;;
42108;SDS011;27765;51.228;7.626;2022-08-11T17:13:17;2.22;;;1.73;;
42108;SDS011;27765;51.228;7.626;2022-08-11T17:15:54;2.00;;;1.80;;
42108;SDS011;27765;51.228;7.626;2022-08-11T17:21:27;2.35;;;1.90;;
42108;SDS011;27765;51.228;7.626;2022-08-11T17:24:34;2.88;;;1.80;;
42108;SDS011;27765;51.228;7.626;2022-08-11T17:27:03;3.85;;;2.00;;
42108;SDS011;27765;51.228;7.626;2022-08-11T17:29:39;3.88;;;1.92;;
42108;SDS011;27765;51.228;7.626;2022-08-11T17:32:16;3.03;;;1.77;;
42108;SDS011;27765;51.228;7.626;2022-08-11T17:35:06;3.03;;;1.63;;
42108;SDS011;27765;51.228;7.626;2022-08-11T17:37:55;2.92;;;1.90;;
42108;SDS011;27765;51.228;7.626;2022-08-11T17:40:22;4.38;;;1.80;;
42108;SDS011;27765;51.228;7.626;2022-08-11T17:42:50;2.85;;;1.88;;
42108;SDS011;27765;51.228;7.626;2022-08-11T17:45:48;3.70;;;1.73;;
42108;SDS011;27765;51.228;7.626;2022-08-11T17:48:35;3.13;;;1.98;;
42108;SDS011;27765;51.228;7.626;2022-08-11T17:51:10;3.00;;;1.92;;
42108;SDS011;27765;51.228;7.626;2022-08-11T17:53:58;3.00;;;2.10;;
42108;SDS011;27765;51.228;7.626;2022-08-11T17:56:45;3.22;;;1.98;;
42108;SDS011;27765;51.228;7.626;2022-08-11T17:59:32;2.25;;;1.80;;
42108;SDS011;27765;51.228;7.626;2022-08-11T18:02:30;3.50;;;1.92;;
42108;SDS011;27765;51.228;7.626;2022-08-11T18:05:18;4.00;;;1.67;;
42108;SDS011;27765;51.228;7.626;2022-08-11T18:07:46;4.18;;;1.88;;
42108;SDS011;27765;51.228;7.626;2022-08-11T18:10:33;1.85;;;1.70;;
42108;SDS011;27765;51.228;7.626;2022-08-11T18:13:19;2.95;;;1.83;;
42108;SDS011;27765;51.228;7.626;2022-08-11T18:16:09;2.40;;;2.05;;
42108;SDS011;27765;51.228;7.626;2022-08-11T18:19:12;3.10;;;1.77;;
42108;SDS011;27765;51.228;7.626;2022-08-11T18:22:16;5.05;;;1.98;;
42108;SDS011;27765;51.228;7.626;2022-08-11T18:25:32;3.15;;;1.70;;
42108;SDS011;27765;51.228;7.626;2022-08-11T18:28:43;2.97;;;2.05;;
42108;SDS011;27765;51.228;7.626;2022-08-11T18:31:32;7.88;;;2.83;;
42108;SDS011;27765;51.228;7.626;2022-08-11T18:34:19;5.75;;;2.42;;
42108;SDS011;27765;51.228;7.626;2022-08-11T18:37:12;5.75;;;2.50;;
42108;SDS011;27765;51.228;7.626;2022-08-11T18:40:06;10.02;;;3.40;;
42108;SDS011;27765;51.228;7.626;2022-08-11T18:42:56;8.50;;;2.90;;
42108;SDS011;27765;51.228;7.626;2022-08-11T18:45:45;8.52;;;3.95;;
42108;SDS011;27765;51.228;7.626;2022-08-11T18:48:34;6.80;;;3.40;;
42108;SDS011;27765;51.228;7.626;2022-08-11T18:51:21;6.13;;;3.22;;
42108;SDS011;27765;51.228;7.626;2022-08-11T18:54:27;7.72;;;2.70;;
42108;SDS011;27765;51.228;7.626;2022-08-11T18:57:32;5.32;;;2.85;;
42108;SDS011;27765;51.228;7.626;2022-08-11T19:00:40;9.55;;;3.40;;
42108;SDS011;27765;51.228;7.626;2022-08-11T19:03:46;11.50;;;3.38;;
42108;SDS011;27765;51.228;7.626;2022-08-11T19:06:52;8.63;;;2.85;;
42108;SDS011;27765;51.228;7.626;2022-08-11T19:10:00;4.38;;;2.03;;
42108;SDS011;27765;51.228;7.626;2022-08-11T19:13:07;6.00;;;2.13;;
42108;SDS011;27765;51.228;7.626;2022-08-11T19:16:13;4.57;;;2.00;;
42108;SDS011;27765;51.228;7.626;2022-08-11T19:19:18;4.22;;;1.70;;
42108;SDS011;27765;51.228;7.626;2022-08-11T19:22:24;1.52;;;1.30;;
42108;SDS011;27765;51.228;7.626;2022-08-11T19:25:31;4.38;;;1.48;;
42108;SDS011;27765;51.228;7.626;2022-08-11T19:28:24;3.55;;;1.98;;
42108;SDS011;27765;51.228;7.626;2022-08-11T19:31:09;4.32;;;2.30;;
42108;SDS011;27765;51.228;7.626;2022-08-11T19:33:55;6.53;;;2.20;;
42108;SDS011;27765;51.228;7.626;2022-08-11T19:36:41;3.60;;;2.40;;
42108;SDS011;27765;51.228;7.626;2022-08-11T19:39:26;3.97;;;2.28;;
42108;SDS011;27765;51.228;7.626;2022-08-11T19:42:12;5.32;;;2.35;;
42108;SDS011;27765;51.228;7.626;2022-08-11T19:44:59;3.67;;;2.20;;
42108;SDS011;27765;51.228;7.626;2022-08-11T19:47:45;4.95;;;2.25;;
42108;SDS011;27765;51.228;7.626;2022-08-11T19:50:33;2.85;;;1.95;;
42108;SDS011;27765;51.228;7.626;2022-08-11T19:53:21;2.95;;;1.80;;
42108;SDS011;27765;51.228;7.626;2022-08-11T19:56:06;2.40;;;1.80;;
42108;SDS011;27765;51.228;7.626;2022-08-11T19:58:52;1.55;;;1.45;;
42108;SDS011;27765;51.228;7.626;2022-08-11T20:01:38;4.18;;;2.00;;